createdAt,value
2023-01-04T00:01:22.363Z,4.82
2023-01-04T00:03:50.253Z,6.22
2023-01-04T00:06:20.889Z,5.32
2023-01-04T00:08:48.489Z,7.20
2023-01-04T00:11:18.828Z,4.25
2023-01-04T00:13:46.952Z,4.80
2023-01-04T00:16:20.222Z,10.23
2023-01-04T00:18:48.004Z,5.82
2023-01-04T00:21:21.358Z,6.10
2023-01-04T00:23:51.236Z,4.47
2023-01-04T00:26:20.795Z,6.40
2023-01-04T00:28:54.021Z,9.02
2023-01-04T00:31:22.994Z,6.47
2023-01-04T00:33:51.228Z,6.18
2023-01-04T00:36:18.041Z,8.35
2023-01-04T00:38:45.294Z,6.57
2023-01-04T00:41:34.353Z,8.23
2023-01-04T00:44:03.443Z,5.30
2023-01-04T00:46:31.496Z,4.38
2023-01-04T00:49:00.737Z,7.38
2023-01-04T00:51:29.430Z,4.15
2023-01-04T00:53:57.047Z,5.88
2023-01-04T00:56:24.030Z,4.25
2023-01-04T00:58:56.460Z,6.28
2023-01-04T01:01:24.325Z,7.55
2023-01-04T01:03:59.159Z,5.22
2023-01-04T01:06:27.158Z,8.52
2023-01-04T01:08:54.435Z,5.90
2023-01-04T01:11:22.319Z,3.97
2023-01-04T01:13:49.922Z,4.88
2023-01-04T01:16:37.878Z,6.18
2023-01-04T01:19:07.148Z,6.43
2023-01-04T01:21:34.078Z,3.47
2023-01-04T01:24:01.013Z,8.50
2023-01-04T01:26:27.986Z,6.65
2023-01-04T01:28:55.070Z,5.15
2023-01-04T01:31:24.597Z,4.25
2023-01-04T01:33:53.527Z,6.22
2023-01-04T01:36:22.746Z,7.15
2023-01-04T01:38:50.128Z,5.32
2023-01-04T01:41:31.706Z,4.22
2023-01-04T01:44:00.242Z,7.72
2023-01-04T01:46:33.287Z,8.57
2023-01-04T01:49:18.413Z,7.10
2023-01-04T01:51:45.634Z,5.78
2023-01-04T01:54:26.721Z,7.00
2023-01-04T01:56:57.997Z,6.50
2023-01-04T01:59:26.128Z,6.07
2023-01-04T02:01:53.115Z,6.50
2023-01-04T02:04:20.570Z,6.60
2023-01-04T02:06:51.505Z,5.30
2023-01-04T02:09:20.725Z,4.30
2023-01-04T02:11:47.773Z,4.93
2023-01-04T02:14:30.124Z,4.20
2023-01-04T02:17:00.305Z,4.95
2023-01-04T02:19:45.798Z,9.05
2023-01-04T02:22:47.802Z,5.32
2023-01-04T02:25:29.700Z,11.52
2023-01-04T02:28:10.714Z,4.18
2023-01-04T02:30:59.685Z,9.35
2023-01-04T02:33:47.159Z,7.78
2023-01-04T02:36:29.189Z,8.40
2023-01-04T02:39:15.225Z,8.70
2023-01-04T02:41:59.405Z,6.03
2023-01-04T02:44:53.925Z,7.75
2023-01-04T02:47:48.281Z,7.10
2023-01-04T02:50:33.640Z,4.97
2023-01-04T02:53:03.460Z,4.85
2023-01-04T02:55:58.090Z,6.47
2023-01-04T02:58:48.155Z,6.35
2023-01-04T03:01:58.720Z,5.63
2023-01-04T03:04:59.431Z,8.35
2023-01-04T03:07:50.085Z,8.32
2023-01-04T03:10:40.245Z,6.15
2023-01-04T03:13:16.958Z,5.38
2023-01-04T03:15:48.621Z,6.80
2023-01-04T03:18:21.713Z,6.32
2023-01-04T03:20:50.215Z,4.65
2023-01-04T03:23:40.146Z,3.20
2023-01-04T03:26:36.826Z,7.15
2023-01-04T03:29:35.201Z,8.00
2023-01-04T03:32:32.403Z,6.20
2023-01-04T03:35:18.584Z,4.68
2023-01-04T03:38:23.382Z,5.65
2023-01-04T03:41:35.743Z,4.35
2023-01-04T03:44:33.548Z,5.32
2023-01-04T03:47:25.761Z,6.90
2023-01-04T03:50:16.929Z,6.60
2023-01-04T03:52:47.636Z,5.13
2023-01-04T03:55:16.726Z,4.93
2023-01-04T03:57:46.405Z,5.00
2023-01-04T04:00:17.086Z,5.97
2023-01-04T04:02:47.604Z,6.32
2023-01-04T04:05:38.346Z,5.28
2023-01-04T04:08:24.649Z,2.80
2023-01-04T04:10:51.587Z,3.20
2023-01-04T04:13:18.397Z,3.58
2023-01-04T04:15:45.242Z,2.88
2023-01-04T04:18:12.043Z,1.73
2023-01-04T04:20:38.920Z,4.50
2023-01-04T04:23:06.199Z,4.18
2023-01-04T04:25:33.033Z,3.47
2023-01-04T04:27:59.974Z,4.50
2023-01-04T04:30:27.047Z,3.40
2023-01-04T04:32:53.831Z,4.93
2023-01-04T04:35:20.613Z,5.97
2023-01-04T04:37:50.651Z,2.78
2023-01-04T04:40:49.568Z,2.72
2023-01-04T04:43:16.489Z,3.47
2023-01-04T04:45:43.364Z,4.57
2023-01-04T04:48:10.337Z,3.55
2023-01-04T04:50:37.248Z,2.85
2023-01-04T04:53:04.327Z,3.28
2023-01-04T04:55:31.281Z,3.10
2023-01-04T04:57:58.230Z,4.60
2023-01-04T05:00:25.332Z,2.35
2023-01-04T05:02:52.712Z,4.35
2023-01-04T05:05:20.034Z,3.38
2023-01-04T05:07:46.945Z,2.80
2023-01-04T05:10:13.897Z,2.58
2023-01-04T05:12:59.495Z,1.85
2023-01-04T05:15:40.874Z,2.97
2023-01-04T05:18:10.217Z,2.25
2023-01-04T05:20:37.507Z,2.33
2023-01-04T05:23:05.470Z,3.55
2023-01-04T05:25:32.645Z,3.63
2023-01-04T05:28:00.006Z,3.35
2023-01-04T05:30:46.117Z,2.88
2023-01-04T05:33:13.251Z,2.78
2023-01-04T05:35:40.392Z,2.13
2023-01-04T05:38:07.343Z,1.23
2023-01-04T05:40:34.302Z,2.70
2023-01-04T05:43:01.179Z,2.70
2023-01-04T05:45:28.364Z,3.60
2023-01-04T05:47:55.410Z,1.00
2023-01-04T05:50:24.039Z,2.83
2023-01-04T05:52:51.685Z,3.58
2023-01-04T05:55:19.119Z,3.85
2023-01-04T05:57:46.461Z,2.80
2023-01-04T06:00:14.349Z,2.40
2023-01-04T06:02:42.920Z,2.03
2023-01-04T06:05:11.915Z,1.73
2023-01-04T06:07:40.131Z,1.85
2023-01-04T06:10:12.127Z,2.35
2023-01-04T06:12:39.555Z,2.10
2023-01-04T06:15:07.724Z,1.73
2023-01-04T06:17:35.189Z,3.55
2023-01-04T06:20:02.653Z,3.72
2023-01-04T06:22:29.994Z,2.75
2023-01-04T06:24:56.943Z,2.00
2023-01-04T06:27:23.740Z,3.63
2023-01-04T06:29:50.925Z,1.45
2023-01-04T06:32:17.835Z,2.83
2023-01-04T06:34:45.095Z,3.35
2023-01-04T06:37:12.087Z,1.58
2023-01-04T06:39:39.156Z,2.03
2023-01-04T06:42:07.358Z,3.30
2023-01-04T06:44:34.716Z,1.60
2023-01-04T06:47:01.928Z,3.78
2023-01-04T06:49:28.888Z,2.42
2023-01-04T06:51:55.821Z,3.00
2023-01-04T06:54:22.771Z,4.40
2023-01-04T06:56:49.791Z,4.45
2023-01-04T06:59:16.721Z,2.53
2023-01-04T07:01:43.610Z,3.40
2023-01-04T07:04:10.811Z,2.45
2023-01-04T07:06:37.816Z,4.30
2023-01-04T07:09:04.692Z,1.00
2023-01-04T07:11:31.752Z,2.63
2023-01-04T07:13:58.530Z,2.50
2023-01-04T07:16:25.755Z,3.17
2023-01-04T07:18:52.756Z,5.53
2023-01-04T07:21:19.563Z,3.15
2023-01-04T07:23:46.421Z,4.72
2023-01-04T07:26:13.328Z,3.42
2023-01-04T07:28:58.866Z,2.15
2023-01-04T07:31:26.000Z,2.88
2023-01-04T07:33:53.171Z,3.50
2023-01-04T07:36:20.153Z,7.18
2023-01-04T07:38:50.123Z,2.47
2023-01-04T07:41:17.006Z,4.25
2023-01-04T07:43:44.075Z,1.50
2023-01-04T07:46:11.588Z,1.95
2023-01-04T07:48:38.482Z,2.30
2023-01-04T07:51:05.678Z,3.17
2023-01-04T07:53:33.724Z,7.25
2023-01-04T07:56:01.026Z,3.85
2023-01-04T07:58:33.351Z,2.70
2023-01-04T08:01:12.408Z,2.05
2023-01-04T08:03:41.029Z,3.67
2023-01-04T08:06:12.085Z,3.53
2023-01-04T08:08:40.997Z,3.42
2023-01-04T08:11:17.757Z,4.20
2023-01-04T08:13:48.022Z,4.22
2023-01-04T08:16:22.329Z,3.85
2023-01-04T08:18:54.584Z,3.55
2023-01-04T08:21:25.631Z,6.43
2023-01-04T08:23:56.149Z,5.60
2023-01-04T08:26:26.095Z,2.88
2023-01-04T08:28:53.155Z,2.22
2023-01-04T08:31:26.643Z,4.13
2023-01-04T08:33:56.949Z,3.95
2023-01-04T08:36:27.512Z,8.27
2023-01-04T08:39:00.586Z,5.53
2023-01-04T08:44:23.267Z,4.82
2023-01-04T08:46:51.063Z,6.80
2023-01-04T08:49:18.617Z,5.05
2023-01-04T08:51:46.698Z,4.13
2023-01-04T08:54:14.236Z,5.05
2023-01-04T08:56:41.521Z,2.88
2023-01-04T08:59:10.914Z,2.50
2023-01-04T09:01:39.276Z,2.85
2023-01-04T09:04:06.427Z,4.63
2023-01-04T09:06:33.812Z,4.70
2023-01-04T09:09:01.041Z,3.88
2023-01-04T09:11:28.473Z,8.30
2023-01-04T09:14:06.371Z,7.18
2023-01-04T09:16:34.501Z,5.88
2023-01-04T09:19:01.676Z,3.35
2023-01-04T09:21:28.938Z,2.85
2023-01-04T09:23:58.008Z,5.97
2023-01-04T09:26:25.575Z,9.45
2023-01-04T09:28:54.757Z,4.00
2023-01-04T09:31:25.081Z,4.65
2023-01-04T09:36:39.565Z,3.15
2023-01-04T09:39:06.614Z,6.57
2023-01-04T09:41:58.627Z,6.50
2023-01-04T09:45:23.495Z,3.75
2023-01-04T09:48:16.158Z,2.60
2023-01-04T09:51:02.842Z,4.20
2023-01-04T09:54:09.284Z,6.13
2023-01-04T09:56:37.765Z,3.90
2023-01-04T09:59:14.848Z,5.65
2023-01-04T10:02:26.102Z,6.20
2023-01-04T10:04:53.889Z,2.78
2023-01-04T10:07:35.092Z,5.05
2023-01-04T10:10:02.499Z,9.95
2023-01-04T10:12:38.380Z,5.45
2023-01-04T10:15:28.164Z,7.85
2023-01-04T10:21:37.818Z,6.50
2023-01-04T10:24:18.615Z,7.40
2023-01-04T10:26:48.120Z,3.55
2023-01-04T10:29:39.338Z,11.43
2023-01-04T10:32:18.230Z,6.05
2023-01-04T10:34:47.388Z,5.25
2023-01-04T10:37:17.184Z,5.43
2023-01-04T10:39:45.497Z,5.22
2023-01-04T10:42:39.694Z,5.57
2023-01-04T10:45:27.452Z,5.20
2023-01-04T10:48:15.499Z,6.65
2023-01-04T10:50:51.749Z,1.92
2023-01-04T10:53:23.760Z,4.25
2023-01-04T10:56:25.507Z,3.50
2023-01-04T10:58:54.212Z,6.53
2023-01-04T11:01:32.433Z,5.07
2023-01-04T11:04:06.526Z,2.28
2023-01-04T11:06:45.002Z,1.83
2023-01-04T11:09:24.833Z,3.20
2023-01-04T11:11:56.893Z,4.93
2023-01-04T11:14:25.533Z,6.78
2023-01-04T11:17:01.122Z,3.88
2023-01-04T11:19:29.257Z,7.10
2023-01-04T11:22:34.460Z,4.07
2023-01-04T11:25:34.458Z,3.92
2023-01-04T11:28:08.718Z,3.35
2023-01-04T11:30:51.271Z,3.35
2023-01-04T11:33:21.396Z,5.88
2023-01-04T11:35:52.254Z,5.13
2023-01-04T11:38:22.995Z,2.83
2023-01-04T11:40:59.927Z,4.32
2023-01-04T11:43:38.773Z,3.53
2023-01-04T11:46:21.069Z,3.75
2023-01-04T11:48:48.724Z,3.47
2023-01-04T11:51:19.391Z,4.15
2023-01-04T11:53:56.366Z,3.00
2023-01-04T11:56:24.393Z,2.22
2023-01-04T11:59:15.468Z,3.50
2023-01-04T12:01:50.289Z,3.20
2023-01-04T12:04:22.135Z,2.92
2023-01-04T12:06:56.929Z,1.40
2023-01-04T12:09:24.003Z,4.10
2023-01-04T12:11:56.698Z,2.47
2023-01-04T12:14:32.462Z,4.75
2023-01-04T12:17:25.645Z,4.80
2023-01-04T12:19:55.385Z,3.00
2023-01-04T12:22:39.029Z,4.68
2023-01-04T12:25:28.159Z,3.17
2023-01-04T12:27:55.579Z,2.97
2023-01-04T12:30:44.607Z,2.90
2023-01-04T12:33:30.524Z,7.60
2023-01-04T12:36:20.616Z,3.08
2023-01-04T12:38:59.836Z,6.32
2023-01-04T12:41:35.920Z,2.63
2023-01-04T12:44:23.525Z,7.35
2023-01-04T12:47:12.050Z,4.50
2023-01-04T12:49:41.830Z,9.20
2023-01-04T12:55:01.520Z,6.13
2023-01-04T12:57:38.093Z,8.65
2023-01-04T13:00:13.536Z,9.80
2023-01-04T13:02:47.773Z,3.38
2023-01-04T13:05:54.916Z,6.13
2023-01-04T13:08:11.474Z,9.98
2023-01-04T13:10:52.685Z,5.28
2023-01-04T13:13:38.779Z,4.68
2023-01-04T13:16:47.274Z,8.10
2023-01-04T13:19:25.891Z,11.00
2023-01-04T13:21:54.408Z,3.83
2023-01-04T13:24:37.019Z,9.20
2023-01-04T13:27:13.724Z,7.28
2023-01-04T13:29:41.691Z,5.88
2023-01-04T13:32:14.688Z,5.53
2023-01-04T13:34:52.068Z,9.05
2023-01-04T13:37:43.395Z,10.20
2023-01-04T13:40:23.692Z,7.13
2023-01-04T13:43:02.568Z,1.73
2023-01-04T13:45:35.347Z,4.07
2023-01-04T13:48:06.378Z,3.58
2023-01-04T13:50:38.092Z,1.98
2023-01-04T13:53:08.388Z,1.25
2023-01-04T13:55:38.382Z,1.88
2023-01-04T13:58:20.918Z,2.45
2023-01-04T14:01:07.232Z,1.33
2023-01-04T14:03:57.388Z,3.25
2023-01-04T14:06:53.780Z,2.60
2023-01-04T14:09:31.086Z,6.68
2023-01-04T14:12:08.718Z,4.28
2023-01-04T14:14:55.799Z,6.95
2023-01-04T14:17:34.206Z,7.82
2023-01-04T14:20:27.312Z,5.38
2023-01-04T14:22:56.786Z,7.55
2023-01-04T14:25:37.107Z,5.55
2023-01-04T14:28:19.628Z,18.15
2023-01-04T14:30:53.772Z,15.15
2023-01-04T14:33:40.960Z,14.70
2023-01-04T14:36:07.990Z,20.25
2023-01-04T14:38:59.565Z,18.83
2023-01-04T14:41:32.796Z,22.63
2023-01-04T14:43:59.643Z,22.77
2023-01-04T14:46:28.602Z,28.77
2023-01-04T14:48:55.746Z,24.80
2023-01-04T14:51:33.335Z,34.60
2023-01-04T15:04:40.393Z,33.90
2023-01-04T15:07:07.442Z,36.35
2023-01-04T15:09:36.218Z,31.23
2023-01-04T15:12:03.128Z,32.45
2023-01-04T15:14:30.127Z,31.33
2023-01-04T15:16:57.199Z,38.17
2023-01-04T15:19:24.229Z,29.60
2023-01-04T15:21:51.116Z,31.77
2023-01-04T15:24:18.011Z,31.33
2023-01-04T15:26:44.970Z,38.13
2023-01-04T15:29:12.025Z,40.90
2023-01-04T15:31:41.355Z,29.20
2023-01-04T15:34:10.392Z,34.60
2023-01-04T15:36:40.800Z,36.95
2023-01-04T15:39:11.582Z,35.53
2023-01-04T15:41:57.205Z,35.25
2023-01-04T15:44:24.940Z,37.15
2023-01-04T15:46:53.520Z,32.88
2023-01-04T15:49:20.880Z,43.85
2023-01-04T15:51:48.018Z,35.63
2023-01-04T15:54:15.156Z,43.13
2023-01-04T15:56:42.310Z,32.60
2023-01-04T15:59:09.308Z,42.17
2023-01-04T16:01:36.423Z,37.72
2023-01-04T16:04:06.496Z,44.90
2023-01-04T16:06:33.401Z,35.67
2023-01-04T16:09:01.861Z,40.60
2023-01-04T16:11:28.891Z,33.75
2023-01-04T16:13:55.877Z,39.90
2023-01-04T16:16:24.939Z,44.47
2023-01-04T16:18:54.409Z,41.80
2023-01-04T16:21:26.838Z,38.33
2023-01-04T16:24:06.856Z,44.75
2023-01-04T16:26:37.004Z,40.72
2023-01-04T16:29:43.069Z,44.50
2023-01-04T16:32:09.882Z,40.63
2023-01-04T16:34:37.483Z,40.22
2023-01-04T16:37:04.692Z,39.78
2023-01-04T16:40:05.176Z,44.10
2023-01-04T16:42:18.999Z,37.17
2023-01-04T16:44:46.570Z,37.72
2023-01-04T16:47:13.592Z,35.47
2023-01-04T16:49:40.603Z,43.67
2023-01-04T16:52:10.565Z,38.95
2023-01-04T16:54:37.640Z,38.38
2023-01-04T16:57:04.670Z,36.33
2023-01-04T16:59:31.969Z,46.65
2023-01-04T17:01:58.968Z,38.38
2023-01-04T17:04:26.103Z,28.58
2023-01-04T17:06:55.012Z,47.33
2023-01-04T17:09:22.316Z,36.67
2023-01-04T17:14:49.152Z,37.25
2023-01-04T17:17:24.082Z,43.15
2023-01-04T17:19:51.078Z,43.70
2023-01-04T17:22:18.092Z,35.25
2023-01-04T17:24:44.981Z,41.80
2023-01-04T17:27:12.102Z,31.40
2023-01-04T17:29:40.208Z,30.80
2023-01-04T17:32:07.219Z,42.97
2023-01-04T17:34:34.304Z,41.17
2023-01-04T17:37:01.148Z,35.13
2023-01-04T17:39:30.959Z,35.90
2023-01-04T17:41:58.303Z,38.22
2023-01-04T17:44:25.256Z,25.55
2023-01-04T17:46:52.720Z,35.17
2023-01-04T17:49:27.529Z,48.08
2023-01-04T17:51:57.585Z,37.40
2023-01-04T17:54:25.720Z,33.17
2023-01-04T17:56:52.846Z,34.80
2023-01-04T17:59:20.028Z,33.13
2023-01-04T18:01:47.336Z,37.20
2023-01-04T18:04:14.345Z,48.20
2023-01-04T18:06:41.417Z,33.70
2023-01-04T18:09:09.108Z,40.35
2023-01-04T18:11:37.370Z,43.47
2023-01-04T18:14:09.652Z,34.83
2023-01-04T18:16:56.472Z,36.33
2023-01-04T18:19:25.920Z,43.20
2023-01-04T18:21:53.103Z,37.20
2023-01-04T18:27:26.296Z,43.03
2023-01-04T18:29:55.812Z,31.63
2023-01-04T18:32:24.688Z,40.50
2023-01-04T18:34:51.633Z,42.17
2023-01-04T18:37:19.134Z,34.70
2023-01-04T18:39:47.144Z,47.60
2023-01-04T18:42:14.293Z,27.00
2023-01-04T18:44:47.899Z,32.95
2023-01-04T18:47:20.076Z,42.78
2023-01-04T18:49:47.865Z,28.92
2023-01-04T18:52:15.553Z,28.85
2023-01-04T18:54:43.231Z,38.72
2023-01-04T18:57:10.541Z,36.38
2023-01-04T18:59:37.669Z,34.25
2023-01-04T19:02:04.805Z,32.35
2023-01-04T19:04:34.224Z,26.70
2023-01-04T19:07:01.770Z,30.65
2023-01-04T19:09:28.703Z,35.13
2023-01-04T19:11:55.574Z,28.58
2023-01-04T19:14:22.459Z,31.85
2023-01-04T19:16:49.429Z,34.03
2023-01-04T19:19:16.747Z,29.42
2023-01-04T19:21:43.571Z,26.10
2023-01-04T19:24:10.650Z,36.85
2023-01-04T19:26:38.214Z,33.60
2023-01-04T19:29:07.417Z,27.33
2023-01-04T19:31:34.604Z,34.38
2023-01-04T19:34:01.777Z,29.75
2023-01-04T19:36:28.832Z,28.83
2023-01-04T19:38:55.868Z,29.27
2023-01-04T19:41:31.192Z,35.38
2023-01-04T19:44:02.628Z,30.85
2023-01-04T19:46:30.536Z,31.20
2023-01-04T19:48:57.914Z,28.02
2023-01-04T19:51:25.018Z,32.22
2023-01-04T19:53:52.105Z,31.50
2023-01-04T19:56:18.966Z,35.20
2023-01-04T19:58:45.828Z,27.95
2023-01-04T20:01:17.312Z,23.02
2023-01-04T20:03:45.278Z,31.60
2023-01-04T20:06:13.496Z,22.17
2023-01-04T20:08:41.623Z,22.08
2023-01-04T20:11:09.099Z,27.52
2023-01-04T20:13:36.042Z,32.92
2023-01-04T20:16:07.680Z,21.25
2023-01-04T20:18:35.280Z,29.58
2023-01-04T20:21:02.076Z,23.48
2023-01-04T20:23:29.043Z,28.42
2023-01-04T20:25:55.951Z,32.55
2023-01-04T20:28:24.432Z,27.83
2023-01-04T20:31:13.723Z,26.20
2023-01-04T20:33:40.728Z,37.17
2023-01-04T20:36:19.755Z,35.22
2023-01-04T20:38:48.218Z,45.05
2023-01-04T20:41:17.677Z,33.70
2023-01-04T20:43:46.549Z,31.33
2023-01-04T20:46:17.775Z,33.15
2023-01-04T20:48:45.360Z,35.10
2023-01-04T20:51:18.403Z,35.58
2023-01-04T20:53:45.913Z,34.70
2023-01-04T20:56:18.375Z,30.33
2023-01-04T20:58:47.151Z,39.65
2023-01-04T21:01:15.161Z,37.00
2023-01-04T21:03:42.668Z,29.95
2023-01-04T21:06:12.635Z,32.53
2023-01-04T21:08:40.623Z,37.67
2023-01-04T21:11:08.111Z,34.30
2023-01-04T21:13:35.200Z,33.67
2023-01-04T21:16:02.214Z,30.05
2023-01-04T21:18:29.197Z,31.10
2023-01-04T21:20:56.010Z,28.38
2023-01-04T21:23:25.661Z,32.35
2023-01-04T21:25:52.935Z,32.22
2023-01-04T21:28:22.179Z,25.17
2023-01-04T21:30:50.125Z,32.33
2023-01-04T21:33:20.503Z,37.58
2023-01-04T21:35:47.271Z,39.67
2023-01-04T21:38:14.211Z,33.20
2023-01-04T21:40:41.480Z,37.17
2023-01-04T21:43:16.259Z,32.33
2023-01-04T21:45:43.258Z,30.35
2023-01-04T21:48:10.086Z,34.78
2023-01-04T21:50:37.575Z,28.35
2023-01-04T21:53:04.601Z,35.78
2023-01-04T21:55:34.769Z,35.97
2023-01-04T21:58:02.920Z,32.72
2023-01-04T22:00:30.080Z,33.67
2023-01-04T22:02:57.208Z,35.80
2023-01-04T22:05:24.308Z,34.95
2023-01-04T22:07:51.392Z,32.90
2023-01-04T22:10:18.427Z,27.65
2023-01-04T22:12:47.982Z,35.75
2023-01-04T22:15:15.157Z,35.22
2023-01-04T22:17:42.229Z,33.00
2023-01-04T22:20:09.807Z,41.70
2023-01-04T22:22:36.787Z,32.20
2023-01-04T22:25:04.002Z,28.30
2023-01-04T22:27:30.996Z,36.95
2023-01-04T22:29:58.411Z,38.80
2023-01-04T22:32:25.374Z,29.52
2023-01-04T22:34:52.197Z,34.58
2023-01-04T22:37:19.267Z,32.08
2023-01-04T22:39:46.301Z,31.42
2023-01-04T22:42:14.021Z,43.47
2023-01-04T22:44:40.893Z,33.53
2023-01-04T22:47:07.838Z,33.40
2023-01-04T22:49:36.133Z,41.28
2023-01-04T22:52:03.149Z,32.50
2023-01-04T22:54:33.001Z,35.10
2023-01-04T22:57:00.434Z,39.38
2023-01-04T22:59:27.272Z,35.70
2023-01-04T23:01:54.282Z,34.83
2023-01-04T23:04:21.112Z,34.28
2023-01-04T23:06:48.058Z,32.47
2023-01-04T23:09:17.122Z,29.05
2023-01-04T23:11:45.209Z,38.08
2023-01-04T23:14:14.472Z,34.45
2023-01-04T23:16:41.536Z,38.65
2023-01-04T23:19:08.658Z,38.92
2023-01-04T23:21:36.336Z,36.22
2023-01-04T23:24:03.970Z,40.30
2023-01-04T23:26:32.502Z,29.35
2023-01-04T23:29:00.876Z,40.65
2023-01-04T23:31:30.663Z,40.90
2023-01-04T23:34:00.176Z,33.65
2023-01-04T23:36:32.962Z,42.97
2023-01-04T23:39:02.410Z,31.95
2023-01-04T23:41:44.527Z,38.72
2023-01-04T23:46:53.906Z,33.60
2023-01-04T23:49:21.325Z,36.08
2023-01-04T23:51:48.665Z,37.00
2023-01-04T23:54:15.818Z,30.55
2023-01-04T23:56:42.738Z,42.55
2023-01-04T23:59:10.486Z,39.45
